Time;durP1;ratioP1;P1;durP2;ratioP2;P2;SDS_P1;SDS_P2;PMS_P1;PMS_P2;Temp;Humidity;BMP_temperature;BMP_pressure;BME280_temperature;BME280_humidity;BME280_pressure;Samples;Min_cycle;Max_cycle;Signal;HPM_P1;HPM_P2
2023/05/11 00:00:02;;;;;;;;;;;12.60;63.60;;;;;;5036024;28;19996;-78
2023/05/11 00:02:27;;;;;;;;;;;12.60;63.60;;;;;;5008677;28;19913;-79
2023/05/11 00:04:53;;;;;;;;;;;12.60;63.70;;;;;;5007653;28;19975;-79
2023/05/11 00:07:18;;;;;;;;;;;12.50;63.60;;;;;;5009009;28;20160;-78
2023/05/11 00:09:44;;;;;;;;;;;12.50;63.70;;;;;;5007564;28;20007;-77
2023/05/11 00:12:09;;;;;;;;;;;12.50;63.70;;;;;;5007057;28;19918;-78
2023/05/11 00:14:35;;;;;;;;;;;12.50;63.70;;;;;;5007408;28;19913;-78
2023/05/11 00:17:00;;;;;;;;;;;12.40;63.70;;;;;;4990100;28;19918;-79
2023/05/11 00:19:26;;;;;;;;;;;12.40;63.70;;;;;;5014010;28;19917;-78
2023/05/11 00:21:52;;;;;;;;;;;12.40;63.70;;;;;;5005651;28;19968;-79
2023/05/11 00:24:17;;;;;;;;;;;12.40;63.80;;;;;;5012213;28;19921;-78
2023/05/11 00:26:43;;;;;;;;;;;12.40;63.80;;;;;;5007499;28;19924;-77
2023/05/11 00:29:08;;;;;;;;;;;12.40;63.90;;;;;;4999919;28;19925;-78
2023/05/11 00:31:34;;;;;;;;;;;12.40;63.90;;;;;;5004391;28;20295;-78
2023/05/11 00:33:59;;;;;;;;;;;12.40;63.90;;;;;;5002755;28;19972;-76
2023/05/11 00:36:25;;;;;;;;;;;12.40;63.90;;;;;;5008352;28;19927;-79
2023/05/11 00:38:51;;;;;;;;;;;12.40;63.90;;;;;;5001813;28;20272;-79
2023/05/11 00:41:17;;;;;;;;;;;12.40;63.90;;;;;;5009979;28;20288;-78
2023/05/11 00:43:42;;;;;;;;;;;12.30;63.90;;;;;;4992443;28;19978;-79
2023/05/11 00:46:08;;;;;;;;;;;12.30;63.90;;;;;;5007055;28;19925;-78
2023/05/11 00:48:33;;;;;;;;;;;12.30;64.00;;;;;;5007621;28;19921;-78
2023/05/11 00:50:59;;;;;;;;;;;12.30;64.00;;;;;;5004756;28;20392;-77
2023/05/11 00:53:24;;;;;;;;;;;12.30;64.00;;;;;;5002747;28;19917;-78
2023/05/11 00:55:50;;;;;;;;;;;12.20;64.00;;;;;;5006078;28;19924;-78
2023/05/11 00:58:15;;;;;;;;;;;12.20;64.00;;;;;;5008451;28;19971;-79
2023/05/11 01:00:41;;;;;;;;;;;12.20;64.00;;;;;;4984877;28;19921;-78
2023/05/11 01:03:07;;;;;;;;;;;12.20;64.00;;;;;;5021722;28;19975;-79
2023/05/11 01:05:40;;;;;;;;;;;12.20;64.10;;;;;;5007516;28;19963;-79
2023/05/11 01:08:12;;;;;;;;;;;12.10;64.00;;;;;;5020992;28;20439;-78
2023/05/11 01:10:40;;;;;;;;;;;12.10;64.00;;;;;;4993414;28;19986;-78
2023/05/11 01:13:06;;;;;;;;;;;12.10;64.10;;;;;;5009008;28;19927;-78
2023/05/11 01:15:39;;;;;;;;;;;12.10;64.20;;;;;;5002670;28;20350;-77
2023/05/11 01:18:10;;;;;;;;;;;12.10;64.10;;;;;;5006059;28;19917;-79
2023/05/11 01:20:36;;;;;;;;;;;12.00;64.10;;;;;;5006837;28;19928;-78
2023/05/11 01:23:02;;;;;;;;;;;12.00;64.10;;;;;;5009205;28;19922;-78
2023/05/11 01:25:31;;;;;;;;;;;12.00;64.20;;;;;;5004884;28;19928;-78
2023/05/11 01:27:56;;;;;;;;;;;12.00;64.20;;;;;;5002501;28;20394;-77
2023/05/11 01:30:30;;;;;;;;;;;12.00;64.30;;;;;;4999383;28;19965;-78
2023/05/11 01:32:57;;;;;;;;;;;11.90;64.30;;;;;;4998744;28;19971;-78
2023/05/11 01:35:23;;;;;;;;;;;11.90;64.30;;;;;;4987660;28;19926;-78
2023/05/11 01:37:50;;;;;;;;;;;11.90;64.30;;;;;;4992373;28;19944;-78
2023/05/11 01:40:16;;;;;;;;;;;11.80;64.30;;;;;;5001618;28;19931;-78
2023/05/11 01:42:44;;;;;;;;;;;11.80;65.10;;;;;;5001502;28;20020;-78
2023/05/11 01:45:10;;;;;;;;;;;11.80;64.40;;;;;;4995011;28;19922;-77
2023/05/11 01:47:36;;;;;;;;;;;11.80;64.50;;;;;;5004236;28;19944;-78
2023/05/11 01:50:02;;;;;;;;;;;11.80;64.50;;;;;;5002278;28;19925;-79
2023/05/11 01:52:27;;;;;;;;;;;11.70;64.50;;;;;;5004698;28;19928;-78
2023/05/11 01:54:53;;;;;;;;;;;11.70;65.30;;;;;;5001698;28;20126;-77
2023/05/11 01:57:19;;;;;;;;;;;11.70;64.50;;;;;;5007565;28;20016;-80
2023/05/11 01:59:44;;;;;;;;;;;11.70;64.50;;;;;;5004148;28;19975;-77
2023/05/11 02:02:11;;;;;;;;;;;11.70;64.50;;;;;;5003323;28;19925;-78
2023/05/11 02:04:36;;;;;;;;;;;11.70;64.60;;;;;;5003005;28;19918;-78
2023/05/11 02:07:01;;;;;;;;;;;11.60;64.50;;;;;;5007010;28;19930;-78
2023/05/11 02:09:28;;;;;;;;;;;11.60;64.60;;;;;;4996760;28;19926;-79
2023/05/11 02:11:53;;;;;;;;;;;11.60;64.60;;;;;;5001515;28;19917;-79
2023/05/11 02:14:19;;;;;;;;;;;11.60;64.60;;;;;;5001519;28;19957;-77
2023/05/11 02:16:45;;;;;;;;;;;11.60;64.70;;;;;;5006097;28;19917;-78
2023/05/11 02:19:11;;;;;;;;;;;11.60;64.60;;;;;;5001904;28;20491;-78
2023/05/11 02:21:36;;;;;;;;;;;11.60;64.70;;;;;;5001879;28;19936;-78
2023/05/11 02:24:02;;;;;;;;;;;11.60;64.70;;;;;;5008503;28;19921;-79
2023/05/11 02:26:27;;;;;;;;;;;11.50;64.60;;;;;;4985624;28;19925;-78
2023/05/11 02:28:53;;;;;;;;;;;11.50;65.50;;;;;;5001468;28;19921;-78
2023/05/11 02:31:19;;;;;;;;;;;11.50;64.70;;;;;;5019175;28;20691;-78
2023/05/11 02:33:46;;;;;;;;;;;11.50;64.80;;;;;;4998324;28;19924;-79
2023/05/11 02:36:13;;;;;;;;;;;11.40;64.80;;;;;;4982743;28;19922;-78
2023/05/11 02:38:39;;;;;;;;;;;11.40;64.80;;;;;;5009901;28;19921;-78
2023/05/11 02:41:08;;;;;;;;;;;11.40;64.90;;;;;;4994755;28;20728;-79
2023/05/11 02:43:39;;;;;;;;;;;11.40;64.90;;;;;;5005423;28;20729;-77
2023/05/11 02:46:05;;;;;;;;;;;11.40;64.90;;;;;;5000748;28;20343;-79
2023/05/11 02:48:33;;;;;;;;;;;11.40;64.90;;;;;;5005607;28;20675;-79
2023/05/11 02:50:59;;;;;;;;;;;11.30;64.90;;;;;;5003519;28;19925;-78
2023/05/11 02:53:26;;;;;;;;;;;11.30;64.90;;;;;;5002735;28;19928;-79
2023/05/11 02:55:52;;;;;;;;;;;11.30;64.90;;;;;;4998729;28;19963;-79
2023/05/11 02:58:17;;;;;;;;;;;11.30;64.90;;;;;;5001383;28;19965;-78
2023/05/11 03:00:42;;;;;;;;;;;11.30;65.00;;;;;;4997658;28;19921;-77
2023/05/11 03:03:08;;;;;;;;;;;11.30;65.00;;;;;;4999823;28;19925;-78
2023/05/11 03:05:34;;;;;;;;;;;11.30;65.00;;;;;;4989243;28;19925;-78
2023/05/11 03:07:59;;;;;;;;;;;11.20;65.00;;;;;;4980088;28;20449;-80
2023/05/11 03:10:25;;;;;;;;;;;11.20;65.00;;;;;;5001443;28;19957;-77
2023/05/11 03:12:50;;;;;;;;;;;11.20;65.00;;;;;;5001050;28;19925;-78
2023/05/11 03:15:16;;;;;;;;;;;11.20;65.00;;;;;;4984703;28;20459;-78
2023/05/11 03:17:41;;;;;;;;;;;11.20;65.10;;;;;;4997208;28;19921;-78
2023/05/11 03:20:07;;;;;;;;;;;11.20;65.10;;;;;;4984452;28;19948;-79
2023/05/11 03:22:32;;;;;;;;;;;11.20;65.10;;;;;;5003119;28;19932;-79
2023/05/11 03:24:58;;;;;;;;;;;11.20;65.10;;;;;;5003766;28;19955;-79
2023/05/11 03:27:23;;;;;;;;;;;11.20;65.10;;;;;;5003722;28;19921;-77
2023/05/11 03:29:51;;;;;;;;;;;11.10;65.10;;;;;;4998760;28;20151;-77
2023/05/11 03:32:16;;;;;;;;;;;11.10;65.10;;;;;;5005112;28;20412;-79
2023/05/11 03:34:42;;;;;;;;;;;11.10;65.10;;;;;;5002022;28;22348;-78
2023/05/11 03:37:09;;;;;;;;;;;11.10;65.20;;;;;;5000558;28;19918;-77
2023/05/11 03:39:35;;;;;;;;;;;11.10;65.20;;;;;;5001628;28;20060;-77
2023/05/11 03:42:00;;;;;;;;;;;11.10;65.20;;;;;;4996334;28;20048;-78
2023/05/11 03:44:26;;;;;;;;;;;11.10;65.20;;;;;;5004433;28;20487;-77
2023/05/11 03:46:51;;;;;;;;;;;11.10;65.20;;;;;;4999814;28;19972;-78
2023/05/11 03:49:16;;;;;;;;;;;11.10;65.20;;;;;;4998885;28;19972;-78
2023/05/11 03:51:42;;;;;;;;;;;11.10;65.20;;;;;;5005839;28;20011;-79
2023/05/11 03:54:08;;;;;;;;;;;11.00;65.20;;;;;;5003291;28;19921;-78
2023/05/11 03:56:34;;;;;;;;;;;11.10;65.30;;;;;;5009810;28;19917;-80
2023/05/11 03:59:00;;;;;;;;;;;11.00;65.30;;;;;;5012235;28;19921;-79
2023/05/11 04:01:26;;;;;;;;;;;11.00;65.20;;;;;;4995559;28;19918;-78
2023/05/11 04:03:52;;;;;;;;;;;11.00;65.30;;;;;;4990479;28;20065;-78
2023/05/11 04:06:17;;;;;;;;;;;11.00;65.20;;;;;;5007156;28;19921;-78
2023/05/11 04:08:43;;;;;;;;;;;11.00;65.30;;;;;;5004310;28;19930;-77
2023/05/11 04:11:08;;;;;;;;;;;11.00;65.30;;;;;;5022397;28;20001;-78
2023/05/11 04:13:34;;;;;;;;;;;11.00;65.30;;;;;;5001093;28;20648;-78
2023/05/11 04:15:59;;;;;;;;;;;11.00;65.30;;;;;;4997277;28;20515;-76
2023/05/11 04:18:25;;;;;;;;;;;11.00;65.30;;;;;;4999071;28;19917;-77
2023/05/11 04:20:50;;;;;;;;;;;11.00;65.30;;;;;;5000560;28;19993;-78
2023/05/11 04:23:15;;;;;;;;;;;11.00;65.40;;;;;;5002399;28;20549;-77
2023/05/11 04:25:41;;;;;;;;;;;11.00;65.30;;;;;;4976829;28;19993;-79
2023/05/11 04:28:06;;;;;;;;;;;11.00;65.30;;;;;;4981521;28;19988;-78
2023/05/11 04:30:32;;;;;;;;;;;11.00;65.30;;;;;;4983566;28;20667;-77
2023/05/11 04:32:57;;;;;;;;;;;11.10;65.40;;;;;;5007399;28;19913;-78
2023/05/11 04:35:23;;;;;;;;;;;11.10;65.40;;;;;;5004837;28;20442;-78
2023/05/11 04:37:49;;;;;;;;;;;11.10;65.30;;;;;;5004181;28;20335;-78
2023/05/11 04:40:14;;;;;;;;;;;11.10;65.40;;;;;;5020459;28;20390;-79
2023/05/11 04:42:40;;;;;;;;;;;11.10;65.30;;;;;;4999345;28;19932;-77
2023/05/11 04:45:06;;;;;;;;;;;11.10;65.30;;;;;;4997882;28;19924;-78
2023/05/11 04:47:31;;;;;;;;;;;11.20;65.40;;;;;;5002698;28;19917;-78
2023/05/11 04:49:56;;;;;;;;;;;11.20;65.30;;;;;;5007130;28;19925;-77
2023/05/11 04:52:22;;;;;;;;;;;11.20;65.30;;;;;;5003127;28;20640;-77
2023/05/11 04:54:47;;;;;;;;;;;11.30;65.30;;;;;;5010798;28;19943;-77
2023/05/11 04:57:13;;;;;;;;;;;11.30;65.30;;;;;;5001116;28;19971;-78
2023/05/11 04:59:38;;;;;;;;;;;11.30;65.30;;;;;;5005931;28;19917;-78
2023/05/11 05:02:04;;;;;;;;;;;11.30;65.30;;;;;;5009072;28;20351;-78
2023/05/11 05:04:29;;;;;;;;;;;11.30;65.20;;;;;;5003810;28;19982;-78
2023/05/11 05:06:55;;;;;;;;;;;11.40;65.20;;;;;;5004276;28;19929;-78
2023/05/11 05:09:20;;;;;;;;;;;11.40;65.20;;;;;;4992222;28;19922;-77
2023/05/11 05:11:46;;;;;;;;;;;11.50;65.20;;;;;;5007797;28;20067;-79
2023/05/11 05:14:11;;;;;;;;;;;11.50;65.20;;;;;;5009184;28;19924;-78
2023/05/11 05:16:37;;;;;;;;;;;11.50;65.20;;;;;;5004444;28;19921;-79
2023/05/11 05:19:02;;;;;;;;;;;11.50;65.10;;;;;;5006696;28;19944;-78
2023/05/11 05:21:28;;;;;;;;;;;11.60;65.20;;;;;;5003463;28;20324;-77
2023/05/11 05:23:53;;;;;;;;;;;11.60;65.20;;;;;;4997652;28;19945;-78
2023/05/11 05:26:18;;;;;;;;;;;11.60;65.10;;;;;;5003124;28;19917;-78
2023/05/11 05:28:44;;;;;;;;;;;11.70;65.10;;;;;;5003329;28;19929;-77
2023/05/11 05:31:09;;;;;;;;;;;11.70;65.10;;;;;;5005707;28;20312;-78
2023/05/11 05:33:35;;;;;;;;;;;11.80;65.10;;;;;;5003315;28;19925;-79
2023/05/11 05:36:00;;;;;;;;;;;11.80;65.00;;;;;;4994692;28;19925;-78
2023/05/11 05:38:26;;;;;;;;;;;11.80;64.90;;;;;;4997279;28;19922;-78
2023/05/11 05:40:51;;;;;;;;;;;11.90;65.00;;;;;;5004716;28;19922;-78
2023/05/11 05:43:17;;;;;;;;;;;11.90;65.00;;;;;;4996718;28;19921;-78
2023/05/11 05:45:42;;;;;;;;;;;12.00;65.00;;;;;;5002232;28;20543;-79
2023/05/11 05:48:08;;;;;;;;;;;12.00;64.90;;;;;;5001628;28;19925;-78
2023/05/11 05:50:34;;;;;;;;;;;12.10;64.90;;;;;;5005642;28;19917;-79
2023/05/11 05:52:59;;;;;;;;;;;12.10;65.00;;;;;;5000123;28;19987;-78
2023/05/11 05:55:25;;;;;;;;;;;12.10;64.80;;;;;;5006333;28;19933;-77
2023/05/11 05:57:50;;;;;;;;;;;12.20;64.80;;;;;;5004691;28;19956;-78
2023/05/11 06:00:16;;;;;;;;;;;12.20;64.80;;;;;;5009317;28;19972;-78
2023/05/11 06:02:41;;;;;;;;;;;12.30;64.90;;;;;;4987289;28;19953;-77
2023/05/11 06:05:07;;;;;;;;;;;12.30;64.80;;;;;;5002650;28;19925;-78
2023/05/11 06:07:32;;;;;;;;;;;12.40;64.70;;;;;;5018009;28;19925;-78
2023/05/11 06:09:58;;;;;;;;;;;12.40;64.70;;;;;;5003203;28;19929;-78
2023/05/11 06:12:23;;;;;;;;;;;12.50;64.70;;;;;;5004762;28;19917;-79
2023/05/11 06:14:49;;;;;;;;;;;12.50;64.60;;;;;;5002009;28;19960;-78
2023/05/11 06:17:15;;;;;;;;;;;12.50;64.60;;;;;;4992677;28;19925;-78
2023/05/11 06:19:41;;;;;;;;;;;12.60;64.60;;;;;;5001281;28;19922;-78
2023/05/11 06:22:06;;;;;;;;;;;12.60;64.50;;;;;;4988469;28;19921;-77
2023/05/11 06:24:32;;;;;;;;;;;12.60;64.50;;;;;;5007693;28;19953;-78
2023/05/11 06:26:57;;;;;;;;;;;12.70;64.50;;;;;;5006281;28;19926;-78
2023/05/11 06:29:23;;;;;;;;;;;12.70;64.50;;;;;;5000572;28;19928;-78
2023/05/11 06:31:51;;;;;;;;;;;12.80;64.50;;;;;;5002584;28;19917;-77
2023/05/11 06:34:19;;;;;;;;;;;12.80;64.50;;;;;;5008264;28;19925;-77
2023/05/11 06:36:45;;;;;;;;;;;12.90;64.50;;;;;;4998949;28;20609;-78
2023/05/11 06:39:11;;;;;;;;;;;12.90;64.40;;;;;;5005835;28;19925;-78
2023/05/11 06:41:36;;;;;;;;;;;13.00;64.40;;;;;;5009037;28;19972;-79
2023/05/11 06:44:02;;;;;;;;;;;13.00;64.40;;;;;;5003711;28;19965;-77
2023/05/11 06:46:27;;;;;;;;;;;13.10;64.40;;;;;;5008329;28;20557;-78
2023/05/11 06:48:53;;;;;;;;;;;13.10;64.30;;;;;;4998099;28;19964;-78
2023/05/11 06:51:20;;;;;;;;;;;13.10;64.20;;;;;;5001599;28;19951;-79
2023/05/11 06:53:46;;;;;;;;;;;13.20;64.60;;;;;;5002605;28;19933;-79
2023/05/11 06:56:11;;;;;;;;;;;13.30;64.20;;;;;;5001358;28;19921;-78
2023/05/11 06:58:37;;;;;;;;;;;13.30;64.10;;;;;;5003389;28;19930;-79
2023/05/11 07:01:04;;;;;;;;;;;13.40;64.10;;;;;;5002988;28;21106;-78
2023/05/11 07:03:30;;;;;;;;;;;13.40;64.00;;;;;;5008544;28;19924;-78
2023/05/11 07:05:55;;;;;;;;;;;13.50;64.00;;;;;;5005490;28;19925;-78
2023/05/11 07:08:21;;;;;;;;;;;13.50;64.00;;;;;;4989587;28;19937;-78
2023/05/11 07:10:46;;;;;;;;;;;13.60;63.90;;;;;;5000922;28;19928;-81
2023/05/11 07:13:12;;;;;;;;;;;13.60;63.90;;;;;;5007756;28;20597;-77
2023/05/11 07:15:37;;;;;;;;;;;13.70;63.90;;;;;;5005817;28;19964;-78
2023/05/11 07:18:02;;;;;;;;;;;13.80;63.90;;;;;;5006087;28;21094;-76
2023/05/11 07:20:28;;;;;;;;;;;13.80;63.80;;;;;;5008178;28;19932;-78
2023/05/11 07:22:58;;;;;;;;;;;13.90;63.80;;;;;;5000581;28;19926;-78
2023/05/11 07:25:23;;;;;;;;;;;13.90;63.70;;;;;;5007271;28;20308;-78
2023/05/11 07:27:49;;;;;;;;;;;13.90;63.70;;;;;;5001855;28;19933;-78
2023/05/11 07:30:14;;;;;;;;;;;14.00;63.70;;;;;;5003961;28;19960;-79
2023/05/11 07:32:40;;;;;;;;;;;14.00;63.60;;;;;;5005838;28;19924;-78
2023/05/11 07:35:06;;;;;;;;;;;14.00;63.60;;;;;;5001475;28;20000;-78
2023/05/11 07:37:32;;;;;;;;;;;14.10;63.60;;;;;;4999714;28;19953;-78
2023/05/11 07:39:57;;;;;;;;;;;14.20;63.60;;;;;;5004070;28;20401;-78
2023/05/11 07:42:23;;;;;;;;;;;14.20;63.60;;;;;;5003851;28;20769;-77
2023/05/11 07:44:48;;;;;;;;;;;14.20;63.50;;;;;;5001816;28;20646;-78
2023/05/11 07:47:14;;;;;;;;;;;14.30;63.50;;;;;;5019171;28;19918;-76
2023/05/11 07:49:40;;;;;;;;;;;14.30;63.40;;;;;;5003554;28;19964;-78
2023/05/11 07:52:06;;;;;;;;;;;14.30;63.30;;;;;;5006821;28;20440;-77
2023/05/11 07:54:31;;;;;;;;;;;14.40;63.30;;;;;;5005026;28;19925;-77
2023/05/11 07:56:57;;;;;;;;;;;14.40;63.30;;;;;;5005754;28;20480;-78
2023/05/11 07:59:22;;;;;;;;;;;14.50;63.30;;;;;;5007884;28;20436;-78
2023/05/11 08:01:47;;;;;;;;;;;14.50;63.20;;;;;;5006775;28;19914;-78
2023/05/11 08:04:13;;;;;;;;;;;14.50;63.20;;;;;;5004209;28;19921;-79
2023/05/11 08:06:38;;;;;;;;;;;14.60;63.20;;;;;;5011227;28;20363;-78
2023/05/11 08:09:05;;;;;;;;;;;14.60;63.10;;;;;;5011877;28;19973;-78
2023/05/11 08:11:30;;;;;;;;;;;14.60;63.10;;;;;;5012896;28;19918;-78
2023/05/11 08:13:55;;;;;;;;;;;14.70;63.20;;;;;;5009048;28;19960;-79
2023/05/11 08:16:21;;;;;;;;;;;14.80;63.20;;;;;;5011347;28;19917;-78
2023/05/11 08:18:46;;;;;;;;;;;14.80;63.20;;;;;;5020861;28;19925;-79
2023/05/11 08:21:12;;;;;;;;;;;14.80;63.20;;;;;;5006251;28;19971;-78
2023/05/11 08:23:38;;;;;;;;;;;14.90;63.10;;;;;;5011082;28;20558;-78
2023/05/11 08:26:03;;;;;;;;;;;14.90;63.00;;;;;;5011914;28;19918;-79
2023/05/11 08:28:29;;;;;;;;;;;15.00;63.00;;;;;;5015406;28;20322;-79
2023/05/11 08:30:55;;;;;;;;;;;15.00;63.00;;;;;;5013016;28;19922;-78
2023/05/11 08:33:20;;;;;;;;;;;15.10;62.90;;;;;;5007643;28;19917;-78
2023/05/11 08:35:46;;;;;;;;;;;15.10;62.90;;;;;;5009205;28;19917;-78
2023/05/11 08:38:12;;;;;;;;;;;15.10;62.90;;;;;;5007412;28;19924;-78
2023/05/11 08:40:42;;;;;;;;;;;15.10;62.90;;;;;;5009660;28;19913;-79
2023/05/11 08:43:08;;;;;;;;;;;15.20;62.80;;;;;;5015359;28;20327;-78
2023/05/11 08:45:33;;;;;;;;;;;15.20;62.80;;;;;;5011171;28;19921;-79
2023/05/11 08:47:59;;;;;;;;;;;15.20;62.80;;;;;;4992256;28;20004;-79
2023/05/11 08:50:24;;;;;;;;;;;15.30;62.90;;;;;;5008260;28;19917;-78
2023/05/11 08:52:50;;;;;;;;;;;15.30;62.80;;;;;;5006877;28;20005;-78
2023/05/11 08:55:15;;;;;;;;;;;15.30;62.80;;;;;;5003276;28;19924;-78
2023/05/11 08:57:41;;;;;;;;;;;15.40;62.80;;;;;;4993911;28;19922;-78
2023/05/11 09:00:06;;;;;;;;;;;15.40;62.80;;;;;;5013920;28;19939;-78
2023/05/11 09:02:32;;;;;;;;;;;15.40;62.80;;;;;;5003084;28;19922;-78
2023/05/11 09:04:57;;;;;;;;;;;15.50;62.80;;;;;;5007995;28;20327;-78
2023/05/11 09:07:23;;;;;;;;;;;15.50;62.70;;;;;;4998333;28;19971;-78
2023/05/11 09:09:49;;;;;;;;;;;15.50;62.70;;;;;;5007251;28;19984;-79
2023/05/11 09:12:15;;;;;;;;;;;15.60;62.70;;;;;;4999421;28;19960;-80
2023/05/11 09:14:40;;;;;;;;;;;15.70;62.70;;;;;;5003404;28;19917;-79
2023/05/11 09:17:06;;;;;;;;;;;15.70;62.60;;;;;;5001467;28;19918;-78
2023/05/11 09:19:31;;;;;;;;;;;15.80;62.60;;;;;;5004342;28;20567;-79
2023/05/11 09:22:00;;;;;;;;;;;15.80;62.50;;;;;;5006369;28;19921;-78
2023/05/11 09:24:25;;;;;;;;;;;15.80;62.50;;;;;;5009157;28;20510;-78
2023/05/11 09:27:04;;;;;;;;;;;15.90;62.50;;;;;;5005578;28;19918;-78
2023/05/11 09:29:31;;;;;;;;;;;15.80;62.40;;;;;;5002166;28;19921;-78
2023/05/11 09:31:56;;;;;;;;;;;15.90;62.40;;;;;;5008049;28;19913;-79
2023/05/11 09:34:21;;;;;;;;;;;15.90;62.40;;;;;;5010436;28;20296;-79
2023/05/11 09:36:51;;;;;;;;;;;16.00;62.50;;;;;;5007797;28;19928;-79
2023/05/11 09:39:18;;;;;;;;;;;16.00;62.40;;;;;;5005839;28;20009;-79
2023/05/11 09:41:44;;;;;;;;;;;16.00;62.40;;;;;;5017929;28;19925;-78
2023/05/11 09:44:13;;;;;;;;;;;16.00;62.40;;;;;;5008810;28;20468;-78
2023/05/11 09:46:39;;;;;;;;;;;16.10;62.40;;;;;;5001369;28;20041;-78
2023/05/11 09:49:05;;;;;;;;;;;16.10;62.30;;;;;;4983458;28;23099;-77
2023/05/11 09:51:31;;;;;;;;;;;16.10;62.30;;;;;;5003794;28;20012;-79
2023/05/11 09:53:57;;;;;;;;;;;16.20;62.40;;;;;;5004142;28;19932;-78
2023/05/11 09:56:23;;;;;;;;;;;16.10;62.30;;;;;;5006329;28;20012;-78
2023/05/11 09:58:53;;;;;;;;;;;16.10;62.30;;;;;;5000549;28;19932;-79
2023/05/11 10:01:31;;;;;;;;;;;16.20;62.40;;;;;;5003806;28;19924;-79
2023/05/11 10:03:57;;;;;;;;;;;16.20;62.40;;;;;;5000270;28;20016;-79
2023/05/11 10:06:22;;;;;;;;;;;16.20;62.40;;;;;;5009651;28;20225;-79
2023/05/11 10:08:48;;;;;;;;;;;16.30;62.40;;;;;;5004818;28;20359;-79
2023/05/11 10:11:13;;;;;;;;;;;16.30;62.40;;;;;;4999051;28;20378;-80
2023/05/11 10:13:39;;;;;;;;;;;16.30;62.30;;;;;;5011346;28;19999;-79
2023/05/11 10:16:05;;;;;;;;;;;16.30;62.20;;;;;;4999962;28;19925;-79
2023/05/11 10:18:31;;;;;;;;;;;16.40;62.20;;;;;;4982322;28;20004;-79
2023/05/11 10:20:57;;;;;;;;;;;16.40;62.20;;;;;;4990169;28;20000;-78
2023/05/11 10:23:22;;;;;;;;;;;16.50;62.20;;;;;;5001173;28;19972;-79
2023/05/11 10:25:48;;;;;;;;;;;16.50;62.20;;;;;;5007199;28;19921;-79
2023/05/11 10:28:13;;;;;;;;;;;16.60;62.20;;;;;;4998055;28;19985;-80
2023/05/11 10:30:39;;;;;;;;;;;16.60;62.10;;;;;;5001889;28;19964;-78
2023/05/11 10:33:04;;;;;;;;;;;16.60;62.10;;;;;;5001321;28;19917;-77
2023/05/11 10:35:30;;;;;;;;;;;16.60;62.10;;;;;;5002266;28;19917;-78
2023/05/11 10:37:57;;;;;;;;;;;16.70;62.10;;;;;;5000545;28;19929;-78
2023/05/11 10:40:22;;;;;;;;;;;16.80;62.10;;;;;;4993353;28;20495;-77
2023/05/11 10:42:48;;;;;;;;;;;16.80;62.00;;;;;;5009461;28;19952;-78
2023/05/11 10:45:25;;;;;;;;;;;16.90;62.00;;;;;;4997919;28;20013;-78
2023/05/11 10:47:54;;;;;;;;;;;16.80;62.00;;;;;;4992668;28;20055;-78
2023/05/11 10:50:39;;;;;;;;;;;16.80;61.90;;;;;;5008325;28;20427;-78
2023/05/11 10:53:11;;;;;;;;;;;16.90;62.00;;;;;;5001915;28;20312;-77
2023/05/11 10:55:45;;;;;;;;;;;16.90;62.00;;;;;;4999321;28;20012;-76
2023/05/11 10:58:31;;;;;;;;;;;16.90;61.90;;;;;;5002288;28;19925;-78
2023/05/11 11:00:59;;;;;;;;;;;17.00;62.00;;;;;;5017109;28;19924;-77
2023/05/11 11:03:24;;;;;;;;;;;17.00;61.90;;;;;;5019223;23;19964;-76
2023/05/11 11:05:50;;;;;;;;;;;17.00;61.90;;;;;;5006946;28;20111;-75
2023/05/11 11:08:15;;;;;;;;;;;17.00;61.90;;;;;;4994578;28;19921;-76
2023/05/11 11:10:44;;;;;;;;;;;17.10;61.90;;;;;;5027742;28;19921;-76
2023/05/11 11:13:11;;;;;;;;;;;17.10;61.90;;;;;;5007590;28;20009;-75
2023/05/11 11:15:52;;;;;;;;;;;17.10;61.90;;;;;;5033605;28;19964;-76
2023/05/11 11:18:18;;;;;;;;;;;17.10;61.90;;;;;;5017240;28;19979;-76
2023/05/11 11:20:47;;;;;;;;;;;17.20;61.90;;;;;;5002500;28;19995;-76
2023/05/11 11:26:18;;;;;;;;;;;17.30;61.90;;;;;;5005838;28;20189;-77
2023/05/11 11:28:52;;;;;;;;;;;17.30;61.80;;;;;;5006391;28;19929;-77
2023/05/11 11:31:27;;;;;;;;;;;17.30;61.80;;;;;;5012040;28;20023;-76
2023/05/11 11:33:57;;;;;;;;;;;17.30;61.80;;;;;;5008054;28;20464;-78
2023/05/11 11:36:41;;;;;;;;;;;17.30;61.80;;;;;;5008330;28;20586;-78
2023/05/11 11:39:07;;;;;;;;;;;17.40;61.80;;;;;;5011266;28;20043;-77
2023/05/11 11:41:32;;;;;;;;;;;17.40;61.80;;;;;;5009712;28;19921;-76
2023/05/11 11:43:58;;;;;;;;;;;17.40;61.70;;;;;;5007709;28;19928;-77
2023/05/11 11:46:24;;;;;;;;;;;17.50;61.80;;;;;;5028497;28;19948;-77
2023/05/11 11:48:49;;;;;;;;;;;17.40;61.70;;;;;;5021929;28;19969;-78
2023/05/11 11:51:15;;;;;;;;;;;17.40;61.70;;;;;;5028104;28;19921;-77
2023/05/11 11:53:41;;;;;;;;;;;17.50;61.80;;;;;;5011753;28;19921;-77
2023/05/11 11:56:07;;;;;;;;;;;17.50;61.80;;;;;;5009952;28;20451;-77
2023/05/11 11:58:39;;;;;;;;;;;17.50;61.80;;;;;;5009967;28;19921;-76
2023/05/11 12:01:08;;;;;;;;;;;17.50;61.70;;;;;;5012434;28;20303;-76
2023/05/11 12:03:34;;;;;;;;;;;17.50;61.70;;;;;;5009892;28;19964;-77
2023/05/11 12:06:00;;;;;;;;;;;17.50;61.80;;;;;;5003742;28;20011;-77
2023/05/11 12:08:26;;;;;;;;;;;17.50;61.80;;;;;;5005987;28;20020;-76
2023/05/11 12:10:53;;;;;;;;;;;17.50;61.80;;;;;;4988822;28;20684;-77
2023/05/11 12:13:18;;;;;;;;;;;17.50;61.80;;;;;;5004078;28;20490;-77
2023/05/11 12:15:44;;;;;;;;;;;17.40;61.90;;;;;;4994189;28;19947;-76
2023/05/11 12:18:19;;;;;;;;;;;17.40;61.90;;;;;;5007708;28;19956;-77
2023/05/11 12:20:45;;;;;;;;;;;17.40;62.00;;;;;;5009588;28;19975;-77
2023/05/11 12:23:11;;;;;;;;;;;17.40;61.90;;;;;;5002565;28;20003;-76
2023/05/11 12:25:36;;;;;;;;;;;17.40;61.90;;;;;;5010752;28;19917;-77
2023/05/11 12:28:02;;;;;;;;;;;17.40;62.00;;;;;;5014818;28;19917;-76
2023/05/11 12:30:31;;;;;;;;;;;17.40;62.00;;;;;;5013468;28;20674;-77
2023/05/11 12:32:58;;;;;;;;;;;17.30;62.00;;;;;;5011781;28;19921;-76
2023/05/11 12:35:27;;;;;;;;;;;17.30;62.00;;;;;;5023638;28;19932;-77
2023/05/11 12:37:52;;;;;;;;;;;17.30;62.00;;;;;;5000428;28;19936;-76
2023/05/11 12:40:18;;;;;;;;;;;17.30;62.10;;;;;;5013289;28;19917;-77
2023/05/11 12:42:53;;;;;;;;;;;17.30;62.10;;;;;;5003643;28;19947;-78
2023/05/11 12:45:19;;;;;;;;;;;17.30;62.10;;;;;;4993937;28;19918;-77
2023/05/11 12:47:48;;;;;;;;;;;17.30;62.10;;;;;;5000055;28;20657;-78
2023/05/11 12:50:13;;;;;;;;;;;17.30;62.10;;;;;;5028890;28;19925;-76
2023/05/11 12:52:38;;;;;;;;;;;17.30;62.20;;;;;;5012401;28;20112;-77
2023/05/11 12:55:04;;;;;;;;;;;17.30;62.10;;;;;;5013370;28;19925;-77
2023/05/11 12:57:30;;;;;;;;;;;17.30;62.10;;;;;;5013335;28;19926;-78
2023/05/11 13:00:06;;;;;;;;;;;17.30;62.10;;;;;;4989688;28;19957;-77
2023/05/11 13:02:32;;;;;;;;;;;17.30;62.10;;;;;;5011322;28;20052;-77
2023/05/11 13:04:57;;;;;;;;;;;17.30;62.20;;;;;;5026959;28;20011;-76
2023/05/11 13:07:23;;;;;;;;;;;17.30;62.20;;;;;;5007042;28;19933;-77
2023/05/11 13:09:56;;;;;;;;;;;17.30;62.20;;;;;;5002051;28;19933;-77
2023/05/11 13:12:21;;;;;;;;;;;17.30;62.20;;;;;;5007861;28;19922;-77
2023/05/11 13:14:47;;;;;;;;;;;17.30;62.20;;;;;;5009483;28;19928;-77
2023/05/11 13:17:13;;;;;;;;;;;17.30;62.30;;;;;;5008029;28;19925;-77
2023/05/11 13:19:39;;;;;;;;;;;17.30;62.30;;;;;;5008502;28;19921;-76
2023/05/11 13:22:05;;;;;;;;;;;17.30;62.30;;;;;;5011258;28;19927;-77
2023/05/11 13:24:31;;;;;;;;;;;17.30;62.30;;;;;;4991619;28;19944;-77
2023/05/11 13:26:56;;;;;;;;;;;17.30;62.30;;;;;;4996466;28;20439;-77
2023/05/11 13:29:22;;;;;;;;;;;17.30;62.40;;;;;;5011010;28;20043;-76
2023/05/11 13:31:48;;;;;;;;;;;17.30;62.40;;;;;;5015291;28;20417;-76
2023/05/11 13:34:14;;;;;;;;;;;17.30;62.30;;;;;;5006973;28;19928;-76
2023/05/11 13:36:39;;;;;;;;;;;17.30;62.30;;;;;;5013484;28;19929;-77
2023/05/11 13:39:05;;;;;;;;;;;17.30;62.30;;;;;;5012028;28;19981;-77
2023/05/11 13:41:31;;;;;;;;;;;17.30;62.40;;;;;;5013484;28;20467;-77
2023/05/11 13:43:56;;;;;;;;;;;17.30;62.30;;;;;;5007936;28;19924;-77
2023/05/11 13:46:22;;;;;;;;;;;17.40;62.40;;;;;;5013018;28;20704;-78
2023/05/11 13:48:47;;;;;;;;;;;17.30;62.30;;;;;;5013270;28;20055;-76
2023/05/11 13:51:13;;;;;;;;;;;17.40;62.40;;;;;;5011622;28;19956;-76
2023/05/11 13:53:38;;;;;;;;;;;17.40;62.40;;;;;;5011669;28;19924;-77
2023/05/11 13:56:04;;;;;;;;;;;17.30;62.30;;;;;;5011185;28;19971;-77
2023/05/11 13:58:30;;;;;;;;;;;17.30;62.30;;;;;;5004970;28;19956;-77
2023/05/11 14:00:55;;;;;;;;;;;17.30;62.30;;;;;;5002877;28;19932;-76
2023/05/11 14:03:22;;;;;;;;;;;17.30;62.30;;;;;;5028277;28;19937;-77
2023/05/11 14:05:47;;;;;;;;;;;17.30;62.40;;;;;;5010681;28;20000;-77
2023/05/11 14:08:13;;;;;;;;;;;17.30;62.40;;;;;;5024047;28;20007;-77
2023/05/11 14:10:38;;;;;;;;;;;17.20;62.40;;;;;;5008408;28;20413;-77
2023/05/11 14:13:05;;;;;;;;;;;17.20;62.50;;;;;;5009405;28;19925;-77